Latest Weather Observations for Newdegate

IDW60801

Issued at 10:53 am WST Monday 19 November 2018 (issued every 10 minutes, with the page automatically refreshed every 10 minutes)

About weather observations | Map of weather stations | Latest weather observations for WA | Other Formats
Station Details ID: 010692 Name: NEWDEGATE RESEARCH STATION Lat: -33.11 Lon: 118.84 Height: 320.0 m
Data from the previous 72 hours. | See also: Recent months at Newdegate
Date/Time
WST
Temp
°C
App
Temp
°C
Dew
Point
°C
Rel
Hum
%
Delta-T
°C
Wind Press
QNH
hPa
Press
MSL
hPa
Rain since
9am
mm
Dir  Spd
km/h
Gust
km/h
Spd
kts
Gust
kts
19/10:30am 17.2 12.1 0.8 33 7.3 SSW 17 30 9 16 1018.1 1017.2 0.0
19/10:00am 16.6 11.6 1.1 35 6.9 SSW 17 26 9 14 1018.2 1017.3 0.0
19/09:30am 15.5 10.0 0.5 36 6.6 SW 19 28 10 15 1018.2 1017.3 0.0
19/09:00am 14.8 10.4 0.3 37 6.3 SSW 13 26 7 14 1018.2 1017.3 0.0
19/08:30am 15.0 9.6 1.5 40 6.0 SSW 19 26 10 14 1018.4 1017.5 0.0
19/08:00am 13.6 8.0 0.9 42 5.5 SSW 20 30 11 16 1018.3 1017.4 0.0
19/07:30am 12.8 7.2 1.2 45 5.0 S 20 30 11 16 1018.2 1017.3 0.0
19/07:00am 13.1 6.8 1.5 45 5.1 SSW 24 37 13 20 1017.7 1016.8 0.0
19/06:30am 12.5 6.2 1.5 47 4.8 SSW 24 33 13 18 1017.2 1016.3 0.0
19/06:00am 11.5 6.0 2.0 52 4.1 SSW 20 26 11 14 1017.0 1016.1 0.0
19/05:30am 10.9 6.2 3.0 58 3.5 SSW 17 26 9 14 1016.6 1015.7 0.0
19/05:00am 10.9 5.7 3.5 60 3.3 SSW 20 26 11 14 1016.3 1015.4 0.0
19/04:30am 10.9 6.9 5.0 67 2.7 SSW 15 20 8 11 1016.0 1015.0 0.0
19/04:00am 11.0 8.9 5.7 70 2.5 S 6 13 3 7 1015.8 1014.8 0.0
19/03:30am 11.0 9.0 6.4 73 2.2 SSW 6 13 3 7 1015.4 1014.5 0.0
19/03:00am 10.9 7.6 6.5 74 2.1 SSW 13 19 7 10 1014.9 1014.0 0.0
19/02:30am 10.9 7.8 7.4 79 1.7 SSW 13 20 7 11 1014.8 1013.9 0.0
19/02:00am 11.3 9.9 9.4 88 1.0 SSW 7 11 4 6 1014.7 1013.8 0.0
19/01:30am 11.2 9.8 9.6 90 0.8 SSW 7 9 4 5 1014.8 1013.9 0.0
19/01:00am 10.9 9.4 9.2 89 0.9 SSW 7 11 4 6 1015.1 1014.2 0.0
19/12:30am 10.7 7.3 9.0 89 0.9 S 17 32 9 17 1015.0 1014.1 0.0
19/12:00am 11.7 8.4 9.6 87 1.1 S 17 28 9 15 1015.1 1014.2 0.0
 
Date/Time
WST
Temp
°C
App
Temp
°C
Dew
Point
°C
Rel
Hum
%
Delta-T
°C
Wind Press
QNH
hPa
Press
MSL
hPa
Rain since
9am
mm
Dir  Spd
km/h
Gust
km/h
Spd
kts
Gust
kts
18/11:30pm 12.7 9.7 9.3 80 1.7 S 15 22 8 12 1015.0 1014.1 0.0
18/11:00pm 13.0 9.2 9.1 77 2.0 S 19 26 10 14 1015.1 1014.2 0.0
18/10:30pm 13.2 8.8 8.9 75 2.2 S 22 32 12 17 1015.0 1014.1 0.0
18/10:00pm 13.8 10.3 10.2 79 1.9 S 19 28 10 15 1014.8 1013.9 0.0
18/09:30pm 14.3 10.6 10.3 77 2.1 S 20 30 11 16 1014.4 1013.5 0.0
18/09:00pm 15.2 10.9 10.8 75 2.4 S 24 33 13 18 1014.1 1013.2 0.0
18/08:30pm 15.7 12.2 10.9 73 2.6 S 20 32 11 17 1013.7 1012.8 0.0
18/08:00pm 16.4 12.1 10.9 70 3.0 S 24 33 13 18 1013.0 1012.0 0.0
18/07:30pm 17.9 12.9 11.0 64 3.8 SSW 28 39 15 21 1012.8 1011.8 0.0
18/07:00pm 19.3 14.0 11.1 59 4.5 SSW 30 43 16 23 1012.2 1011.3 0.0
18/06:33pm 21.1 16.9 9.7 48 6.2 WSW 22 44 12 24 1011.4 1010.5 0.0
18/06:30pm 22.2 17.8 6.4 36 8.2 WSW 19 24 10 13 1011.1 1010.2 0.0
18/06:00pm 23.3 18.5 5.7 32 9.0 WSW 20 32 11 17 1010.7 1009.7 0.0
18/05:30pm 24.2 19.2 6.5 32 9.3 WSW 22 35 12 19 1010.2 1009.2 0.0
18/05:00pm 23.8 18.3 5.7 31 9.3 WSW 24 41 13 22 1009.8 1008.8 0.0
18/04:30pm 25.5 20.1 6.2 29 10.1 WSW 24 35 13 19 1009.5 1008.5 0.0
18/04:00pm 26.5 21.2 7.0 29 10.5 WSW 24 35 13 19 1009.2 1008.2 0.0
18/03:30pm 26.7 22.0 7.7 30 10.3 WSW 22 35 12 19 1009.0 1008.1 0.0
18/03:00pm 25.3 20.0 7.0 31 9.8 WSW 24 37 13 20 1009.0 1008.1 0.0
18/02:30pm 26.0 20.9 7.6 31 9.9 WSW 24 37 13 20 1009.2 1008.2 0.0
18/02:00pm 25.4 20.2 7.1 31 9.8 W 24 37 13 20 1009.4 1008.4 0.0
18/01:30pm 25.8 21.4 7.4 31 9.9 WSW 20 37 11 20 1009.5 1008.5 0.0
18/01:00pm 25.9 21.5 6.5 29 10.3 W 19 39 10 21 1009.8 1008.8 0.0
18/12:30pm 24.9 20.1 5.7 29 10.0 W 20 33 11 18 1010.2 1009.2 0.0
18/12:00pm 23.8 19.8 6.6 33 9.0 W 17 32 9 17 1010.6 1009.6 0.0
18/11:30am 23.1 18.7 6.4 34 8.7 W 19 30 10 16 1010.9 1010.0 0.0
18/11:00am 22.7 18.9 7.7 38 8.0 WSW 17 28 9 15 1011.2 1010.3 0.0
18/10:30am 21.2 17.3 7.1 40 7.3 W 17 28 9 15 1011.6 1010.7 0.0
18/10:00am 20.9 16.7 8.2 44 6.7 W 20 30 11 16 1011.7 1010.8 0.0
18/09:30am 20.2 16.0 8.2 46 6.3 WSW 20 30 11 16 1011.6 1010.7 0.0
18/09:00am 18.8 14.8 9.0 53 5.2 WSW 20 30 11 16 1011.9 1011.0 0.2
18/08:30am 18.9 16.1 9.9 56 4.9 WSW 15 24 8 13 1012.0 1011.1 0.2
18/08:00am 17.3 13.5 9.7 61 4.1 WSW 20 30 11 16 1012.0 1011.1 0.2
18/07:30am 17.1 13.0 10.2 64 3.7 WSW 22 32 12 17 1011.8 1010.9 0.2
18/07:00am 16.6 12.9 10.0 65 3.5 WSW 20 28 11 15 1011.6 1010.7 0.2
18/06:30am 16.4 12.8 10.5 68 3.2 SW 20 28 11 15 1011.3 1010.4 0.2
18/06:00am 15.0 12.4 12.1 83 1.6 SW 17 24 9 13 1011.0 1010.1 0.2
18/05:30am 14.4 12.7 12.3 87 1.2 SW 13 19 7 10 1010.7 1009.7 0.2
18/05:00am 14.6 12.9 12.5 87 1.2 SW 13 17 7 9 1010.2 1009.2 0.2
18/04:30am 14.9 13.9 13.3 90 0.9 SW 11 17 6 9 1009.8 1008.8 0.2
18/04:00am 14.7 14.5 12.9 89 1.0 SSW 6 9 3 5 1009.7 1008.7 0.2
18/03:30am 14.2 14.0 12.9 92 0.7 SSW 6 7 3 4 1009.6 1008.6 0.2
18/03:00am 13.2 13.6 11.4 89 1.0 CALM 0 0 0 0 1009.3 1008.3 0.2
18/02:30am 13.2 12.5 11.4 89 1.0 WSW 6 7 3 4 1009.5 1008.5 0.2
18/02:00am 14.1 14.3 12.0 87 1.2 SW 2 4 1 2 1009.4 1008.4 0.2
18/01:30am 14.8 15.3 12.8 88 1.1 SSW 2 2 1 1 1009.6 1008.6 0.2
18/01:00am 14.7 14.2 12.2 85 1.4 S 6 6 3 3 1009.6 1008.6 0.2
18/12:30am 14.9 14.7 11.7 81 1.8 SW 4 6 2 3 1009.7 1008.7 0.2
18/12:00am 16.7 17.5 12.7 77 2.3 CALM 0 2 0 1 1010.0 1009.0 0.2
 
Date/Time
WST
Temp
°C
App
Temp
°C
Dew
Point
°C
Rel
Hum
%
Delta-T
°C
Wind Press
QNH
hPa
Press
MSL
hPa
Rain since
9am
mm
Dir  Spd
km/h
Gust
km/h
Spd
kts
Gust
kts
17/11:30pm 17.4 17.0 12.5 73 2.8 S 6 9 3 5 1010.0 1009.0 0.2
17/11:00pm 17.6 17.6 12.3 71 3.0 SSE 4 6 2 3 1010.0 1009.0 0.2
17/10:30pm 18.8 18.3 12.5 67 3.6 S 7 9 4 5 1009.9 1008.9 0.2
17/10:00pm 19.9 19.3 12.2 61 4.4 S 7 9 4 5 1009.9 1008.9 0.2
17/09:30pm 21.2 19.4 12.1 56 5.2 SSE 13 19 7 10 1009.8 1008.8 0.2
17/09:00pm 24.9 21.0 10.8 41 8.0 WSW 22 35 12 19 1009.2 1008.2 0.2
17/08:30pm 25.0 21.7 8.1 34 9.1 W 15 24 8 13 1009.3 1008.3 0.2
17/08:00pm 25.6 21.8 5.8 28 10.4 W 15 20 8 11 1008.6 1007.7 0.2
17/07:30pm 26.4 23.1 4.8 25 11.1 W 11 15 6 8 1008.2 1007.3 0.2
17/07:00pm 27.7 23.7 4.7 23 11.9 W 15 24 8 13 1008.3 1007.4 0.2
17/06:30pm 28.4 24.5 5.3 23 12.1 W 15 20 8 11 1008.0 1007.0 0.2
17/06:00pm 29.7 25.4 7.0 24 12.4 W 19 28 10 15 1007.4 1006.4 0.2
17/05:30pm 30.2 26.8 9.1 27 11.9 W 17 26 9 14 1007.5 1006.5 0.2
17/05:00pm 30.9 26.0 8.6 25 12.6 W 24 37 13 20 1007.0 1006.0 0.2
17/04:30pm 31.8 27.6 8.1 23 13.3 WNW 20 35 11 19 1007.0 1006.0 0.2
17/04:00pm 32.5 26.2 3.5 16 15.2 NW 26 39 14 21 1006.9 1005.9 0.2
17/03:30pm 33.2 27.7 4.0 16 15.4 WNW 22 39 12 21 1006.8 1005.8 0.2
17/03:00pm 33.3 25.9 4.1 16 15.5 NW 32 52 17 28 1006.8 1005.8 0.2
17/02:50pm 33.7 27.0 3.5 15 15.9 NW 28 48 15 26 1006.7 1005.7 0.2
17/02:30pm 33.9 28.1 4.6 16 15.7 NW 24 37 13 20 1006.8 1005.8 0.2
17/02:00pm 34.1 27.4 3.8 15 16.1 NW 28 39 15 21 1006.8 1005.8 0.2
17/01:30pm 35.1 27.8 5.5 16 16.2 NW 33 46 18 25 1007.1 1006.1 0.2
17/01:03pm 35.4 28.7 5.8 16 16.3 NW 30 52 16 28 1007.4 1006.4 0.2
17/01:00pm 34.6 28.9 6.8 18 15.5 NW 26 43 14 23 1007.4 1006.4 0.2
17/12:39pm 34.2 28.3 7.3 19 15.1 NW 28 48 15 26 1007.6 1006.6 0.2
17/12:30pm 34.0 29.9 8.6 21 14.5 WNW 20 39 11 21 1007.6 1006.6 0.2
17/12:00pm 34.2 28.6 8.8 21 14.6 NW 28 41 15 22 1007.9 1006.9 0.2
17/11:30am 34.0 29.3 10.6 24 13.8 NW 26 39 14 21 1008.5 1007.6 0.2
17/11:00am 32.3 27.5 10.4 26 12.8 NW 26 35 14 19 1008.9 1008.0 0.2
17/10:44am 32.4 27.1 9.9 25 13.0 NNW 28 48 15 26 1009.0 1008.1 0.2
17/10:30am 32.0 27.0 9.5 25 12.9 NNW 26 39 14 21 1009.3 1008.3 0.2
17/10:00am 30.1 24.3 9.6 28 11.7 NNW 30 39 16 21 1010.0 1009.0 0.2
17/09:30am 29.8 23.6 9.3 28 11.6 N 32 46 17 25 1010.3 1009.3 0.2
17/09:00am 28.4 23.4 9.6 31 10.6 N 26 41 14 22 1010.7 1009.7 -
17/08:30am 27.7 21.8 9.0 31 10.4 N 30 39 16 21 1010.9 1010.0 -
17/08:00am 26.5 22.0 10.2 36 9.2 NNE 24 37 13 20 1011.1 1010.2 -
17/07:30am 23.4 19.8 11.8 48 6.6 NNE 22 32 12 17 1011.4 1010.5 -
17/07:00am 21.8 19.6 13.2 58 5.0 NE 17 26 9 14 1011.5 1010.6 -
17/06:30am 20.5 18.4 13.5 64 4.1 NE 17 28 9 15 1011.5 1010.6 -
17/06:00am 19.6 17.9 13.5 68 3.5 NE 15 22 8 12 1011.7 1010.8 -
17/05:30am 18.9 17.2 13.5 71 3.1 ENE 15 22 8 12 1011.7 1010.8 -
17/05:00am 17.9 16.4 13.2 74 2.7 ENE 13 19 7 10 1011.7 1010.8 -
17/04:30am 17.3 16.7 13.4 78 2.2 ENE 9 11 5 6 1011.6 1010.7 -
17/04:00am 17.1 16.5 13.4 79 2.1 ENE 9 11 5 6 1011.7 1010.8 -
17/03:30am 18.0 17.1 13.7 76 2.5 ENE 11 17 6 9 1011.9 1011.0 -
17/03:00am 17.3 16.6 14.4 83 1.7 ENE 11 15 6 8 1012.0 1011.1 2.0
17/02:30am 16.8 16.8 14.3 85 1.5 NE 7 9 4 5 1012.7 1011.7 -
17/02:00am 16.8 16.5 14.4 86 1.4 ENE 9 13 5 7 1013.0 1012.0 -
17/01:30am 17.2 16.3 14.8 86 1.4 ENE 13 17 7 9 1013.2 1012.2 -
17/01:00am 17.3 16.5 15.1 87 1.3 ESE 13 20 7 11 1013.5 1012.5 -
17/12:30am 17.5 16.0 15.3 87 1.3 ESE 17 22 9 12 1013.9 1013.0 -
17/12:00am 18.4 18.9 14.9 80 2.1 NW 6 15 3 8 1015.4 1014.5 -
 
Date/Time
WST
Temp
°C
App
Temp
°C
Dew
Point
°C
Rel
Hum
%
Delta-T
°C
Wind Press
QNH
hPa
Press
MSL
hPa
Rain since
9am
mm
Dir  Spd
km/h
Gust
km/h
Spd
kts
Gust
kts
16/11:30pm 18.5 17.7 15.0 80 2.1 ENE 13 20 7 11 1014.7 1013.8 -
16/11:00pm 17.4 16.4 14.7 84 1.6 ESE 13 20 7 11 1014.7 1013.8 -
16/10:30pm 16.6 16.2 14.1 85 1.4 ENE 9 13 5 7 1015.9 1014.9 -
16/10:00pm 16.3 15.4 13.8 85 1.4 ESE 11 19 6 10 1016.1 1015.1 -
16/09:30pm 16.4 16.3 13.9 85 1.4 ESE 7 15 4 8 1016.3 1015.4 -
16/09:00pm 16.4 14.4 13.9 85 1.4 ESE 17 28 9 15 1015.8 1014.8 -
16/08:30pm 16.8 14.4 13.9 83 1.7 ESE 19 28 10 15 1015.7 1014.7 -
16/08:00pm 17.3 14.7 13.8 80 2.0 ESE 20 32 11 17 1015.3 1014.4 -
16/07:30pm 18.4 15.4 13.7 74 2.7 ESE 22 32 12 17 1015.0 1014.1 -
16/07:00pm 19.5 16.4 13.4 68 3.5 SE 22 33 12 18 1015.3 1014.4 -
16/06:30pm 21.3 18.1 13.2 60 4.7 SE 22 32 12 17 1015.4 1014.5 0.0
16/06:00pm 22.9 20.3 13.1 54 5.7 SE 19 28 10 15 1014.9 1014.0 0.0
16/05:30pm 24.0 20.1 13.2 50 6.3 SE 26 35 14 19 1014.7 1013.8 0.0
16/05:00pm 26.4 22.2 13.5 45 7.7 SE 28 43 15 23 1014.4 1013.5 0.0
16/04:30pm 26.6 23.0 13.0 43 8.1 SE 24 33 13 18 1014.6 1013.7 0.0
16/04:00pm 28.0 24.2 12.4 38 9.2 SE 24 33 13 18 1014.7 1013.8 0.0
16/03:30pm 27.8 24.3 12.2 38 9.2 ESE 22 33 12 18 1014.9 1014.0 0.0
16/03:00pm 28.3 25.5 12.6 38 9.3 ESE 19 32 10 17 1015.0 1014.1 0.0
16/02:30pm 27.4 24.2 13.0 41 8.6 ESE 22 32 12 17 1015.3 1014.4 0.0
16/02:00pm 26.9 24.1 13.3 43 8.1 ESE 20 30 11 16 1015.8 1014.8 0.0
16/01:30pm 26.0 23.2 13.2 45 7.6 ESE 20 28 11 15 1016.1 1015.1 0.0
16/01:00pm 27.1 23.5 13.1 42 8.3 ESE 24 37 13 20 1016.5 1015.6 0.0
16/12:30pm 24.4 21.6 13.3 50 6.5 ESE 20 32 11 17 1017.0 1016.1 0.0
16/12:00pm 24.7 21.6 13.3 49 6.7 SE 22 33 12 18 1017.6 1016.7 0.0
16/11:30am 23.4 20.2 13.0 52 6.1 SE 22 32 12 17 1018.0 1017.1 0.0
16/11:00am 24.1 21.7 13.9 53 6.1 ESE 19 30 10 16 1018.8 1017.9 0.0

Other Formats:

Comma delimited format used in spreadsheet applications
http://www.bom.gov.au/fwo/IDW60801/IDW60801.94628.axf

JavaScript Object Notation format (JSON) in row-major order
http://www.bom.gov.au/fwo/IDW60801/IDW60801.94628.json